Time;durP1;ratioP1;P1;durP2;ratioP2;P2;SDS_P1;SDS_P2;PMS_P1;PMS_P2;Temp;Humidity;BMP_temperature;BMP_pressure;BME280_temperature;BME280_humidity;BME280_pressure;Samples;Min_cycle;Max_cycle;Signal;HPM_P1;HPM_P2
2023/02/23 00:00:33;;;;;;;;;;;;;;;-142.75;100.00;77151.03;4954961;28;20441;-66
2023/02/23 00:03:00;;;;;;;;;;;;;;;-142.75;100.00;77145.13;4941162;29;19914;-66
2023/02/23 00:05:29;;;;;;;;;;;;;;;-142.75;100.00;77178.59;4936531;29;19958;-66
2023/02/23 00:07:54;;;;;;;;;;;;;;;-142.75;100.00;77184.50;4936257;29;19922;-65
2023/02/23 00:10:20;;;;;;;;;;;;;;;-142.75;100.00;77188.44;4935366;29;19919;-65
2023/02/23 00:12:45;;;;;;;;;;;;;;;-142.75;100.00;77188.44;4935784;29;19948;-66
2023/02/23 00:15:10;;;;;;;;;;;;;;;-142.75;100.00;77192.38;4936140;29;19998;-66
2023/02/23 00:17:36;;;;;;;;;;;;;;;-142.75;100.00;77188.44;4936360;29;19919;-65
2023/02/23 00:20:10;;;;;;;;;;;;;;;-142.75;100.00;77153.00;4936241;29;19915;-65
2023/02/23 00:22:39;;;;;;;;;;;;;;;-142.75;100.00;77135.28;4939834;29;19965;-66
2023/02/23 00:25:07;;;;;;;;;;;;;;;-142.75;100.00;77129.38;4940194;29;20010;-66
2023/02/23 00:27:33;;;;;;;;;;;;;;;-142.75;100.00;77145.13;4938528;29;19922;-66
2023/02/23 00:29:58;;;;;;;;;;;;;;;-142.75;100.00;77176.63;4939508;29;19919;-66
2023/02/23 00:32:23;;;;;;;;;;;;;;;-142.75;100.00;77182.53;4939536;29;19914;-66
2023/02/23 00:34:49;;;;;;;;;;;;;;;-142.75;100.00;77180.56;4939255;29;20410;-66
2023/02/23 00:37:15;;;;;;;;;;;;;;;-142.75;100.00;77174.66;4938869;29;20021;-66
2023/02/23 00:39:40;;;;;;;;;;;;;;;-142.75;100.00;77141.19;4936794;29;19914;-66
2023/02/23 00:42:06;;;;;;;;;;;;;;;-142.75;100.00;77141.19;4938241;29;19915;-66
2023/02/23 00:44:32;;;;;;;;;;;;;;;-142.75;100.00;77166.78;4938484;29;19914;-65
2023/02/23 00:46:58;;;;;;;;;;;;;;;-142.75;100.00;77164.81;4938494;29;19925;-65
2023/02/23 00:49:23;;;;;;;;;;;;;;;-142.75;100.00;77164.81;4937789;29;19919;-66
2023/02/23 00:51:49;;;;;;;;;;;;;;;-142.75;100.00;77168.75;4974432;23;19954;-66
2023/02/23 00:54:15;;;;;;;;;;;;;;;-142.75;100.00;77166.78;4954094;28;20371;-62
2023/02/23 00:56:40;;;;;;;;;;;;;;;-142.75;100.00;77176.63;4970505;28;19915;-64
2023/02/23 00:59:06;;;;;;;;;;;;;;;-142.75;100.00;77190.41;4955224;28;19914;-65
2023/02/23 01:01:31;;;;;;;;;;;;;;;-142.75;100.00;77182.53;4971060;28;19937;-64
2023/02/23 01:03:56;;;;;;;;;;;;;;;-142.75;100.00;77192.38;4974454;28;19961;-64
2023/02/23 01:06:21;;;;;;;;;;;;;;;-142.75;100.00;77194.34;4957346;28;19925;-66
2023/02/23 01:08:48;;;;;;;;;;;;;;;-142.75;100.00;77174.66;4974352;28;19922;-64
2023/02/23 01:11:19;;;;;;;;;;;;;;;-142.75;100.00;77166.78;4953661;28;19964;-63
2023/02/23 01:13:46;;;;;;;;;;;;;;;-142.75;100.00;77172.69;4970085;28;20005;-64
2023/02/23 01:16:12;;;;;;;;;;;;;;;-142.75;100.00;77172.69;4969883;28;19922;-66
2023/02/23 01:18:38;;;;;;;;;;;;;;;-142.75;100.00;77184.50;4969749;28;19921;-64
2023/02/23 01:21:04;;;;;;;;;;;;;;;-142.75;100.00;77170.72;4954491;28;19922;-65
2023/02/23 01:23:29;;;;;;;;;;;;;;;-142.75;100.00;77151.03;4955169;28;19920;-64
2023/02/23 01:25:55;;;;;;;;;;;;;;;-142.75;100.00;77160.88;4969536;28;20268;-64
2023/02/23 01:28:20;;;;;;;;;;;;;;;-142.75;100.00;77160.88;4972773;28;20040;-64
2023/02/23 01:30:45;;;;;;;;;;;;;;;-142.75;100.00;77178.59;4973444;28;19918;-64
2023/02/23 01:33:12;;;;;;;;;;;;;;;-142.75;100.00;77158.91;4974120;28;19914;-64
2023/02/23 01:35:37;;;;;;;;;;;;;;;-142.75;100.00;77178.59;4974014;28;19913;-64
2023/02/23 01:38:03;;;;;;;;;;;;;;;-142.75;100.00;77178.59;4973482;28;20398;-64
2023/02/23 01:40:28;;;;;;;;;;;;;;;-142.75;100.00;77170.72;4988696;28;19977;-64
2023/02/23 01:43:13;;;;;;;;;;;;;;;-142.75;100.00;77164.81;4973771;28;19918;-66
2023/02/23 01:45:40;;;;;;;;;;;;;;;-142.75;100.00;77151.03;4973880;28;19913;-62
2023/02/23 01:48:11;;;;;;;;;;;;;;;-142.75;100.00;77156.94;4969717;28;19969;-64
2023/02/23 01:50:41;;;;;;;;;;;;;;;-142.75;100.00;77176.63;4953709;28;19927;-65
2023/02/23 01:53:07;;;;;;;;;;;;;;;-142.75;100.00;77174.66;4954712;28;19973;-64
2023/02/23 01:55:33;;;;;;;;;;;;;;;-142.75;100.00;77186.47;4954420;28;19957;-67
2023/02/23 01:58:03;;;;;;;;;;;;;;;-142.75;100.00;77180.56;4954476;28;20451;-64
2023/02/23 02:00:30;;;;;;;;;;;;;;;-142.75;100.00;77188.44;4953965;28;19921;-65
2023/02/23 02:02:57;;;;;;;;;;;;;;;-142.75;100.00;77178.59;4954452;28;19920;-64
2023/02/23 02:05:22;;;;;;;;;;;;;;;-142.75;100.00;77180.56;4969283;28;19918;-65
2023/02/23 02:07:49;;;;;;;;;;;;;;;-142.75;100.00;77176.63;4954270;28;20330;-65
2023/02/23 02:12:43;;;;;;;;;;;;;;;-142.75;100.00;77176.63;4953930;28;19938;-66
2023/02/23 02:15:15;;;;;;;;;;;;;;;-142.75;100.00;77180.56;4956839;28;19913;-64
2023/02/23 02:17:47;;;;;;;;;;;;;;;-142.75;100.00;77168.75;4973041;28;19914;-65
2023/02/23 02:20:31;;;;;;;;;;;;;;;-142.75;100.00;77188.44;4973035;28;20394;-65
2023/02/23 02:23:09;;;;;;;;;;;;;;;-142.75;100.00;77184.50;4965191;28;19914;-64
2023/02/23 02:25:49;;;;;;;;;;;;;;;-142.75;100.00;77196.31;4959344;28;19914;-65
2023/02/23 02:28:16;;;;;;;;;;;;;;;-142.75;100.00;77192.38;4968283;28;19922;-65
2023/02/23 02:30:45;;;;;;;;;;;;;;;-142.75;100.00;77210.09;4953651;28;19922;-64
2023/02/23 02:33:10;;;;;;;;;;;;;;;-142.75;100.00;77190.41;4953717;28;20279;-64
2023/02/23 02:35:38;;;;;;;;;;;;;;;-142.75;100.00;77186.47;4953752;28;19929;-64
2023/02/23 02:38:03;;;;;;;;;;;;;;;-142.75;100.00;77174.66;4968449;28;19922;-64
2023/02/23 02:40:35;;;;;;;;;;;;;;;-142.75;100.00;77180.56;4969667;28;19918;-64
2023/02/23 02:43:14;;;;;;;;;;;;;;;-142.75;100.00;77176.63;4972148;28;19914;-64
2023/02/23 02:45:39;;;;;;;;;;;;;;;-142.75;100.00;77182.53;4955229;28;19925;-66
2023/02/23 02:48:12;;;;;;;;;;;;;;;-142.75;100.00;77184.50;4972853;28;20055;-64
2023/02/23 02:50:46;;;;;;;;;;;;;;;-142.75;100.00;77160.88;4972465;28;19918;-64
2023/02/23 02:53:13;;;;;;;;;;;;;;;-142.75;100.00;77172.69;4971466;28;19913;-65
2023/02/23 02:55:42;;;;;;;;;;;;;;;-142.75;100.00;77156.94;4972701;28;19914;-63
2023/02/23 02:58:10;;;;;;;;;;;;;;;-142.75;100.00;77160.88;4972515;28;19914;-64
2023/02/23 04:19:28;;;;;;;;;;;;;;;-142.75;100.00;77214.03;4956098;28;19977;-64
2023/02/23 04:21:54;;;;;;;;;;;;;;;-142.75;100.00;77212.06;4970678;28;20040;-63
2023/02/23 04:24:19;;;;;;;;;;;;;;;-142.75;100.00;77219.94;4970779;28;19914;-63
2023/02/23 04:26:44;;;;;;;;;;;;;;;-142.75;100.00;77223.88;4970936;28;19969;-62
2023/02/23 04:29:11;;;;;;;;;;;;;;;-142.75;100.00;77227.81;4955821;28;19915;-62
2023/02/23 04:31:36;;;;;;;;;;;;;;;-142.75;100.00;77239.63;4974916;28;19937;-63
2023/02/23 04:34:02;;;;;;;;;;;;;;;-142.75;100.00;77251.44;4957826;28;20374;-65
2023/02/23 04:36:27;;;;;;;;;;;;;;;-142.75;100.00;77239.63;4974979;28;19922;-62
2023/02/23 04:38:52;;;;;;;;;;;;;;;-142.75;100.00;77237.66;4974849;28;19914;-61
2023/02/23 04:41:18;;;;;;;;;;;;;;;-142.75;100.00;77227.81;4974994;28;19914;-63
2023/02/23 04:43:44;;;;;;;;;;;;;;;-142.75;100.00;77225.84;4975107;28;20350;-65
2023/02/23 04:46:09;;;;;;;;;;;;;;;-142.75;100.00;77204.19;4973604;28;19914;-63
2023/02/23 04:48:34;;;;;;;;;;;;;;;-142.75;100.00;77192.38;4974874;28;19921;-63
2023/02/23 04:51:00;;;;;;;;;;;;;;;-142.75;100.00;77239.63;4974618;28;19921;-63
2023/02/23 04:53:26;;;;;;;;;;;;;;;-142.75;100.00;77219.94;4974856;28;19961;-63
2023/02/23 04:55:51;;;;;;;;;;;;;;;-142.75;100.00;77223.88;4973388;28;20294;-63
2023/02/23 04:58:16;;;;;;;;;;;;;;;-142.75;100.00;77206.16;4974727;28;20053;-62
2023/02/23 05:00:41;;;;;;;;;;;;;;;-142.75;100.00;77231.75;4973292;28;19918;-63
2023/02/23 05:03:07;;;;;;;;;;;;;;;-142.75;100.00;77247.50;4974756;28;19914;-63
2023/02/23 05:05:32;;;;;;;;;;;;;;;-142.75;100.00;77267.19;4972627;28;20539;-62
2023/02/23 05:07:57;;;;;;;;;;;;;;;-142.75;100.00;77288.84;4961503;28;19921;-64
2023/02/23 05:10:23;;;;;;;;;;;;;;;-142.75;100.00;77294.75;4974075;28;19918;-63
2023/02/23 05:12:48;;;;;;;;;;;;;;;-142.75;100.00;77294.75;4989394;28;19922;-63
2023/02/23 05:15:13;;;;;;;;;;;;;;;-142.75;100.00;77292.78;4974630;28;19944;-63
2023/02/23 05:17:40;;;;;;;;;;;;;;;-142.75;100.00;77304.59;4956543;28;20282;-63
2023/02/23 05:20:05;;;;;;;;;;;;;;;-142.75;100.00;77342.00;4969736;28;20431;-62
2023/02/23 05:22:31;;;;;;;;;;;;;;;-142.75;100.00;77330.19;4955112;28;19950;-63
2023/02/23 05:24:56;;;;;;;;;;;;;;;-142.75;100.00;77316.41;4954984;28;20295;-62
2023/02/23 05:27:21;;;;;;;;;;;;;;;-142.75;100.00;77324.28;4954875;28;20496;-63
2023/02/23 05:29:46;;;;;;;;;;;;;;;-142.75;100.00;77306.56;4970277;28;19965;-64
2023/02/23 05:32:11;;;;;;;;;;;;;;;-142.75;100.00;77302.63;4974052;28;19960;-64
2023/02/23 05:34:38;;;;;;;;;;;;;;;-142.75;100.00;77292.78;4974102;28;20324;-63
2023/02/23 05:37:03;;;;;;;;;;;;;;;-142.75;100.00;77308.53;4974167;28;19914;-64
2023/02/23 05:39:28;;;;;;;;;;;;;;;-142.75;100.00;77310.50;4973727;28;20013;-63
2023/02/23 05:41:53;;;;;;;;;;;;;;;-142.75;100.00;77292.78;4957877;28;20264;-63
2023/02/23 05:44:19;;;;;;;;;;;;;;;-142.75;100.00;77296.72;4954442;28;19945;-63
2023/02/23 05:46:44;;;;;;;;;;;;;;;-142.75;100.00;77294.75;4960866;28;19968;-63
2023/02/23 05:49:09;;;;;;;;;;;;;;;-142.75;100.00;77298.69;4973466;28;19941;-63
2023/02/23 05:51:35;;;;;;;;;;;;;;;-142.75;100.00;77306.56;4973516;28;19921;-63
2023/02/23 05:54:01;;;;;;;;;;;;;;;-142.75;100.00;77300.66;4973785;28;19980;-65
2023/02/23 05:56:26;;;;;;;;;;;;;;;-142.75;100.00;77308.53;4956484;28;20394;-63
2023/02/23 05:58:53;;;;;;;;;;;;;;;-142.75;100.00;77330.19;4973351;28;19953;-62
2023/02/23 06:01:19;;;;;;;;;;;;;;;-142.75;100.00;77338.06;4973793;28;19971;-64
2023/02/23 06:03:44;;;;;;;;;;;;;;;-142.75;100.00;77334.13;4974485;28;19949;-63
2023/02/23 06:06:10;;;;;;;;;;;;;;;-142.75;100.00;77340.03;4974182;28;19921;-63
2023/02/23 06:08:35;;;;;;;;;;;;;;;-142.75;100.00;77340.03;4973466;28;20401;-64
2023/02/23 06:11:01;;;;;;;;;;;;;;;-142.75;100.00;77375.47;4956340;28;19918;-64
2023/02/23 06:13:27;;;;;;;;;;;;;;;-142.75;100.00;77385.31;4973688;28;19946;-63
2023/02/23 06:15:52;;;;;;;;;;;;;;;-142.75;100.00;77393.19;4959868;28;19918;-64
2023/02/23 06:18:17;;;;;;;;;;;;;;;-142.75;100.00;77381.38;4953913;28;19914;-65
2023/02/23 06:20:44;;;;;;;;;;;;;;;-142.75;100.00;77389.25;4968617;28;20455;-65
2023/02/23 06:23:10;;;;;;;;;;;;;;;-142.75;100.00;77391.22;4954016;28;19915;-65
2023/02/23 06:25:36;;;;;;;;;;;;;;;-142.75;100.00;77408.94;4953990;28;19914;-65
2023/02/23 06:28:01;;;;;;;;;;;;;;;-142.75;100.00;77405.00;4953530;28;19926;-64
2023/02/23 06:30:26;;;;;;;;;;;;;;;-142.75;100.00;77385.31;4952950;28;19933;-63
2023/02/23 06:32:51;;;;;;;;;;;;;;;-142.75;100.00;77393.19;4953662;28;20333;-64
2023/02/23 06:35:17;;;;;;;;;;;;;;;-142.75;100.00;77414.84;4961729;28;19914;-64
2023/02/23 06:37:42;;;;;;;;;;;;;;;-142.75;100.00;77397.13;4972835;28;19956;-64
2023/02/23 06:40:08;;;;;;;;;;;;;;;-142.75;100.00;77408.94;4972810;28;19993;-66
2023/02/23 06:42:34;;;;;;;;;;;;;;;-142.75;100.00;77405.00;4972466;28;19920;-64
2023/02/23 06:45:00;;;;;;;;;;;;;;;-142.75;100.00;77381.38;4972933;28;19914;-64
2023/02/23 06:47:25;;;;;;;;;;;;;;;-142.75;100.00;77391.22;4972791;28;20385;-65
2023/02/23 06:49:50;;;;;;;;;;;;;;;-142.75;100.00;77401.06;4972138;28;19918;-64
2023/02/23 06:52:15;;;;;;;;;;;;;;;-142.75;100.00;77395.16;5013565;23;19929;-65
2023/02/23 06:54:41;;;;;;;;;;;;;;;-142.75;100.00;77391.22;4992458;28;19918;-67
2023/02/23 06:57:06;;;;;;;;;;;;;;;-142.75;100.00;77401.06;4977243;28;19913;-67
2023/02/23 06:59:32;;;;;;;;;;;;;;;-142.75;100.00;77406.97;4993670;28;19945;-67
2023/02/23 07:01:57;;;;;;;;;;;;;;;-142.75;100.00;77387.28;4992781;28;19921;-66
2023/02/23 07:04:22;;;;;;;;;;;;;;;-142.75;100.00;77401.06;4992613;28;19914;-68
2023/02/23 07:06:47;;;;;;;;;;;;;;;-142.75;100.00;77401.06;4992168;28;19918;-68
2023/02/23 07:09:14;;;;;;;;;;;;;;;-142.75;100.00;77406.97;4992259;28;20347;-68
2023/02/23 07:11:40;;;;;;;;;;;;;;;-142.75;100.00;77416.81;4994922;28;20352;-68
2023/02/23 07:14:06;;;;;;;;;;;;;;;-142.75;100.00;77416.81;4991659;28;20462;-67
2023/02/23 07:16:31;;;;;;;;;;;;;;;-142.75;100.00;77432.56;4985678;28;19914;-68
2023/02/23 07:18:56;;;;;;;;;;;;;;;-142.75;100.00;77434.53;4973240;28;19922;-68
2023/02/23 07:21:21;;;;;;;;;;;;;;;-142.75;100.00;77426.66;4990071;28;19952;-68
2023/02/23 07:23:48;;;;;;;;;;;;;;;-142.75;100.00;77414.84;4991297;28;19920;-67
2023/02/23 07:26:15;;;;;;;;;;;;;;;-142.75;100.00;77399.09;4990923;28;20020;-68
2023/02/23 07:28:40;;;;;;;;;;;;;;;-142.75;100.00;77387.28;4989889;28;19913;-68
2023/02/23 07:31:05;;;;;;;;;;;;;;;-142.75;100.00;77381.38;4989857;28;19917;-65
2023/02/23 07:33:31;;;;;;;;;;;;;;;-142.75;100.00;77385.31;4990617;28;19993;-66
2023/02/23 07:35:56;;;;;;;;;;;;;;;-142.75;100.00;77389.25;4990869;28;19914;-66
2023/02/23 07:38:21;;;;;;;;;;;;;;;-142.75;100.00;77371.53;4990650;28;19920;-65
2023/02/23 07:40:48;;;;;;;;;;;;;;;-142.75;100.00;77365.63;4990765;28;19914;-66
2023/02/23 07:43:14;;;;;;;;;;;;;;;-142.75;100.00;77369.56;4992663;28;20417;-67
2023/02/23 07:45:40;;;;;;;;;;;;;;;-142.75;100.00;77365.63;4992036;28;19967;-66
2023/02/23 07:48:05;;;;;;;;;;;;;;;-142.75;100.00;77365.63;4993680;28;19964;-66
2023/02/23 07:50:31;;;;;;;;;;;;;;;-142.75;100.00;77357.75;4990818;28;19991;-66
2023/02/23 07:52:56;;;;;;;;;;;;;;;-142.75;100.00;77357.75;4991288;28;19988;-68
2023/02/23 07:55:21;;;;;;;;;;;;;;;-142.75;100.00;77369.56;4991392;28;20345;-68
2023/02/23 07:57:46;;;;;;;;;;;;;;;-142.75;100.00;77367.59;4993000;28;19921;-67
2023/02/23 08:00:12;;;;;;;;;;;;;;;-142.75;100.00;77365.63;4991806;28;19914;-67
2023/02/23 08:02:37;;;;;;;;;;;;;;;-142.75;100.00;77353.81;4991211;28;19919;-68
2023/02/23 08:05:02;;;;;;;;;;;;;;;-142.75;100.00;77353.81;4991329;28;19929;-67
2023/02/23 08:07:30;;;;;;;;;;;;;;;-142.75;100.00;77357.75;4992050;28;20305;-68
2023/02/23 08:09:55;;;;;;;;;;;;;;;-142.75;100.00;77365.63;4995108;28;19922;-68
2023/02/23 08:12:20;;;;;;;;;;;;;;;-142.75;100.00;77363.66;4994512;28;20684;-68
2023/02/23 08:14:45;;;;;;;;;;;;;;;-142.75;100.00;77361.69;4991160;28;19913;-68
2023/02/23 08:17:11;;;;;;;;;;;;;;;-142.75;100.00;77343.97;4997693;28;19917;-67
2023/02/23 08:19:36;;;;;;;;;;;;;;;-142.75;100.00;77330.19;4992063;28;20430;-67
2023/02/23 08:22:02;;;;;;;;;;;;;;;-142.75;100.00;77332.16;4993520;28;19921;-68
2023/02/23 08:24:29;;;;;;;;;;;;;;;-142.75;100.00;77326.25;4993928;28;19921;-68
2023/02/23 08:26:54;;;;;;;;;;;;;;;-142.75;100.00;77338.06;4996528;28;20322;-65
2023/02/23 08:29:20;;;;;;;;;;;;;;;-142.75;100.00;77324.28;4991734;28;19913;-70
2023/02/23 08:31:45;;;;;;;;;;;;;;;-142.75;100.00;77330.19;4990975;28;19913;-69
2023/02/23 08:34:11;;;;;;;;;;;;;;;-142.75;100.00;77334.13;4973979;28;19913;-69
2023/02/23 08:36:36;;;;;;;;;;;;;;;-142.75;100.00;77322.31;4994472;28;19914;-69
2023/02/23 08:39:01;;;;;;;;;;;;;;;-142.75;100.00;77324.28;4991247;28;19921;-68
2023/02/23 08:41:26;;;;;;;;;;;;;;;-142.75;100.00;77322.31;4992376;28;19913;-69
2023/02/23 08:43:52;;;;;;;;;;;;;;;-142.75;100.00;77355.78;4994552;28;19921;-69
2023/02/23 08:46:19;;;;;;;;;;;;;;;-142.75;100.00;77343.97;4994521;28;20377;-69
2023/02/23 08:48:45;;;;;;;;;;;;;;;-142.75;100.00;77357.75;4991503;28;20374;-69
2023/02/23 08:51:11;;;;;;;;;;;;;;;-142.75;100.00;77349.88;4994038;28;20029;-66
2023/02/23 08:53:36;;;;;;;;;;;;;;;-142.75;100.00;77351.84;4998234;28;19942;-65
2023/02/23 08:56:03;;;;;;;;;;;;;;;-142.75;100.00;77351.84;4994272;28;19957;-68
2023/02/23 08:58:30;;;;;;;;;;;;;;;-142.75;100.00;77363.66;4993729;28;19922;-68
2023/02/23 09:00:55;;;;;;;;;;;;;;;-142.75;100.00;77397.13;4993829;28;19914;-67
2023/02/23 09:03:20;;;;;;;;;;;;;;;-142.75;100.00;77418.78;4994393;28;20295;-68
2023/02/23 09:05:46;;;;;;;;;;;;;;;-142.75;100.00;77436.50;4994912;28;20013;-67
2023/02/23 09:08:11;;;;;;;;;;;;;;;-142.75;100.00;77414.84;4994399;28;19920;-67
2023/02/23 09:10:37;;;;;;;;;;;;;;;-142.75;100.00;77428.63;4994221;28;19918;-67
2023/02/23 09:13:03;;;;;;;;;;;;;;;-142.75;100.00;77440.44;4995617;28;19925;-67
2023/02/23 09:15:29;;;;;;;;;;;;;;;-142.75;100.00;77424.69;4997432;28;19924;-67
2023/02/23 09:17:58;;;;;;;;;;;;;;;-142.75;100.00;77408.94;4992336;28;20374;-67
2023/02/23 09:20:25;;;;;;;;;;;;;;;-142.75;100.00;77428.63;4994269;28;19920;-67
2023/02/23 09:22:52;;;;;;;;;;;;;;;-142.75;100.00;77424.69;4993752;28;19932;-67
2023/02/23 09:25:21;;;;;;;;;;;;;;;-142.75;100.00;77422.72;4993783;28;19968;-66
2023/02/23 09:27:46;;;;;;;;;;;;;;;-142.75;100.00;77406.97;4993947;28;20291;-67
2023/02/23 09:30:16;;;;;;;;;;;;;;;-142.75;100.00;77414.84;4993276;28;19924;-67
2023/02/23 09:32:42;;;;;;;;;;;;;;;-142.75;100.00;77420.75;4993764;28;19914;-67
2023/02/23 09:35:07;;;;;;;;;;;;;;;-142.75;100.00;77405.00;4993545;28;19920;-67
2023/02/23 09:37:33;;;;;;;;;;;;;;;-142.75;100.00;77367.59;4993830;28;19914;-67
2023/02/23 09:39:58;;;;;;;;;;;;;;;-142.75;100.00;77357.75;4993349;28;19918;-67
2023/02/23 09:42:32;;;;;;;;;;;;;;;-142.75;100.00;77359.72;4994369;28;19922;-67
2023/02/23 09:45:03;;;;;;;;;;;;;;;-142.75;100.00;77342.00;4994247;28;19918;-67
2023/02/23 09:47:44;;;;;;;;;;;;;;;-142.75;100.00;77349.88;4988373;28;19942;-67
2023/02/23 09:50:29;;;;;;;;;;;;;;;-142.75;100.00;77332.16;4984554;28;20363;-66
2023/02/23 09:53:04;;;;;;;;;;;;;;;-142.75;100.00;77302.63;4989170;28;19913;-67
2023/02/23 09:55:30;;;;;;;;;;;;;;;-142.75;100.00;77294.75;4991101;28;19917;-67
2023/02/23 09:57:56;;;;;;;;;;;;;;;-142.75;100.00;77334.13;4994198;28;19913;-67
2023/02/23 10:00:26;;;;;;;;;;;;;;;-142.75;100.00;77338.06;4992064;28;19920;-67
2023/02/23 10:03:06;;;;;;;;;;;;;;;-142.75;100.00;77334.13;4991800;28;19921;-67
2023/02/23 10:05:36;;;;;;;;;;;;;;;-142.75;100.00;77343.97;4992887;28;20020;-67
2023/02/23 10:08:06;;;;;;;;;;;;;;;-142.75;100.00;77338.06;4992732;28;19914;-67
2023/02/23 10:10:38;;;;;;;;;;;;;;;-142.75;100.00;77357.75;4992506;28;19925;-67
2023/02/23 10:13:22;;;;;;;;;;;;;;;-142.75;100.00;77349.88;4993227;28;19914;-67
2023/02/23 10:15:51;;;;;;;;;;;;;;;-142.75;100.00;77353.81;4995213;28;20375;-67
2023/02/23 10:18:29;;;;;;;;;;;;;;;-142.75;100.00;77345.94;4992612;28;19959;-68
2023/02/23 10:20:57;;;;;;;;;;;;;;;-142.75;100.00;77355.78;4993045;28;20007;-67
2023/02/23 10:23:28;;;;;;;;;;;;;;;-142.75;100.00;77365.63;4990041;28;19956;-68
2023/02/23 10:25:58;;;;;;;;;;;;;;;-142.75;100.00;77371.53;4993634;28;20401;-68
2023/02/23 10:28:24;;;;;;;;;;;;;;;-142.75;100.00;77349.88;4995970;28;20358;-68
2023/02/23 10:30:51;;;;;;;;;;;;;;;-142.75;100.00;77357.75;4994913;28;19937;-67
2023/02/23 10:33:32;;;;;;;;;;;;;;;-142.75;100.00;77334.13;4975712;28;19968;-67
2023/02/23 10:36:00;;;;;;;;;;;;;;;-142.75;100.00;77381.38;4995512;28;20517;-67
2023/02/23 10:38:26;;;;;;;;;;;;;;;-142.75;100.00;77369.56;4992122;28;19957;-67
2023/02/23 10:40:55;;;;;;;;;;;;;;;-142.75;100.00;77391.22;4994492;28;19976;-67
2023/02/23 10:43:20;;;;;;;;;;;;;;;-142.75;100.00;77410.91;4991378;28;20425;-67
2023/02/23 10:45:50;;;;;;;;;;;;;;;-142.75;100.00;77408.94;4993208;28;19921;-67
2023/02/23 10:48:35;;;;;;;;;;;;;;;-142.75;100.00;77401.06;4990924;28;19913;-67
2023/02/23 10:51:04;;;;;;;;;;;;;;;-142.75;100.00;77403.03;4975397;28;19970;-66
2023/02/23 10:53:34;;;;;;;;;;;;;;;-142.75;100.00;77410.91;4990444;28;19922;-67
2023/02/23 10:56:14;;;;;;;;;;;;;;;-142.75;100.00;77412.88;4992046;28;19926;-67
2023/02/23 10:58:39;;;;;;;;;;;;;;;-142.75;100.00;77410.91;4991747;28;19917;-67
2023/02/23 11:01:04;;;;;;;;;;;;;;;-142.75;100.00;77389.25;4988789;28;20402;-67
2023/02/23 11:03:32;;;;;;;;;;;;;;;-142.75;100.00;77381.38;4990384;28;19952;-67
2023/02/23 11:05:58;;;;;;;;;;;;;;;-142.75;100.00;77397.13;4990933;28;20318;-67
2023/02/23 11:08:23;;;;;;;;;;;;;;;-142.75;100.00;77401.06;4991138;28;20017;-68
2023/02/23 11:10:54;;;;;;;;;;;;;;;-142.75;100.00;77399.09;4993397;28;19958;-67
2023/02/23 11:13:20;;;;;;;;;;;;;;;-142.75;100.00;77428.63;4990983;28;19913;-66
2023/02/23 11:15:46;;;;;;;;;;;;;;;-142.75;100.00;77418.78;4994084;28;19945;-67
2023/02/23 11:18:17;;;;;;;;;;;;;;;-142.75;100.00;77430.59;4994178;28;20429;-67
2023/02/23 11:20:43;;;;;;;;;;;;;;;-142.75;100.00;77436.50;4991698;28;19914;-67
2023/02/23 11:23:15;;;;;;;;;;;;;;;-142.75;100.00;77446.34;4988813;28;19964;-67
2023/02/23 11:25:42;;;;;;;;;;;;;;;-142.75;100.00;77464.09;4996393;28;20344;-67
2023/02/23 11:28:13;;;;;;;;;;;;;;;-142.75;100.00;77477.88;4991688;28;19926;-67
2023/02/23 11:30:41;;;;;;;;;;;;;;;-142.75;100.00;77489.69;4991956;28;19957;-67
2023/02/23 11:33:12;;;;;;;;;;;;;;;-142.75;100.00;77493.63;4992911;28;19922;-67
2023/02/23 11:35:38;;;;;;;;;;;;;;;-142.75;100.00;77471.97;4992037;28;19922;-68
2023/02/23 11:38:13;;;;;;;;;;;;;;;-142.75;100.00;77483.78;4991346;28;19920;-67
2023/02/23 11:40:39;;;;;;;;;;;;;;;-142.75;100.00;77444.38;4991695;28;19925;-67
2023/02/23 11:43:06;;;;;;;;;;;;;;;-142.75;100.00;77436.50;4991551;28;20379;-68
2023/02/23 11:45:33;;;;;;;;;;;;;;;-142.75;100.00;77416.81;4991634;28;19914;-67
2023/02/23 11:48:01;;;;;;;;;;;;;;;-142.75;100.00;77424.69;4990264;28;19967;-67
2023/02/23 11:50:26;;;;;;;;;;;;;;;-142.75;100.00;77408.94;4991182;28;19918;-67
2023/02/23 11:53:03;;;;;;;;;;;;;;;-142.75;100.00;77375.47;4972721;28;20043;-67
2023/02/23 11:55:30;;;;;;;;;;;;;;;-142.75;100.00;77381.38;4991941;28;20314;-64
2023/02/23 11:58:18;;;;;;;;;;;;;;;-142.75;100.00;77406.97;4992272;28;20372;-65
2023/02/23 12:00:53;;;;;;;;;;;;;;;-142.75;100.00;77389.25;4977054;28;20306;-65
2023/02/23 12:03:21;;;;;;;;;;;;;;;-142.75;100.00;77383.34;4994250;28;20056;-66
2023/02/23 12:05:50;;;;;;;;;;;;;;;-142.75;100.00;77430.59;4993430;28;19914;-66
2023/02/23 12:08:18;;;;;;;;;;;;;;;-142.75;100.00;77405.00;4991641;28;20000;-67
2023/02/23 12:10:50;;;;;;;;;;;;;;;-142.75;100.00;77405.00;4991109;28;19925;-67
2023/02/23 12:13:37;;;;;;;;;;;;;;;-142.75;100.00;77418.78;4991379;28;19913;-68
2023/02/23 12:16:11;;;;;;;;;;;;;;;-142.75;100.00;77405.00;4994670;28;20052;-67
2023/02/23 12:18:55;;;;;;;;;;;;;;;-142.75;100.00;77410.91;4993918;28;19922;-67
2023/02/23 12:21:33;;;;;;;;;;;;;;;-142.75;100.00;77414.84;4996057;28;19913;-67
2023/02/23 12:24:04;;;;;;;;;;;;;;;-142.75;100.00;77420.75;4996065;28;20016;-67
2023/02/23 12:26:32;;;;;;;;;;;;;;;-142.75;100.00;77438.47;4995328;28;19933;-67
2023/02/23 12:29:17;;;;;;;;;;;;;;;-142.75;100.00;77452.25;4994826;28;20318;-67
2023/02/23 12:31:46;;;;;;;;;;;;;;;-142.75;100.00;77430.59;4994580;28;19922;-67
2023/02/23 12:34:16;;;;;;;;;;;;;;;-142.75;100.00;77408.94;4995757;28;20355;-67
2023/02/23 12:36:44;;;;;;;;;;;;;;;-142.75;100.00;77430.59;4998386;28;20303;-67
2023/02/23 12:39:16;;;;;;;;;;;;;;;-142.75;100.00;77426.66;4997560;28;19917;-68
2023/02/23 12:41:52;;;;;;;;;;;;;;;-142.75;100.00;77424.69;4994604;28;20380;-67
2023/02/23 12:44:17;;;;;;;;;;;;;;;-142.75;100.00;77420.75;5000097;28;19922;-65
2023/02/23 12:46:47;;;;;;;;;;;;;;;-142.75;100.00;77420.75;4998027;28;19914;-67
2023/02/23 12:49:36;;;;;;;;;;;;;;;-142.75;100.00;77416.81;4994327;28;19996;-67
2023/02/23 12:52:24;;;;;;;;;;;;;;;-142.75;100.00;77385.31;4986537;23;19931;-63
2023/02/23 12:54:50;;;;;;;;;;;;;;;-142.75;100.00;77375.47;4949823;28;19919;-64
2023/02/23 12:57:15;;;;;;;;;;;;;;;-142.75;100.00;77363.66;4935924;29;19997;-64
2023/02/23 12:59:48;;;;;;;;;;;;;;;-142.75;100.00;77361.69;4936212;29;19942;-64
2023/02/23 13:02:20;;;;;;;;;;;;;;;-142.75;100.00;77338.06;4945696;29;19914;-66
2023/02/23 13:04:45;;;;;;;;;;;;;;;-142.75;100.00;77349.88;4940183;29;19915;-67
2023/02/23 13:07:21;;;;;;;;;;;;;;;-142.75;100.00;77351.84;4936332;29;20381;-66
2023/02/23 13:10:10;;;;;;;;;;;;;;;-142.75;100.00;77389.25;4935788;29;19925;-65
2023/02/23 13:12:38;;;;;;;;;;;;;;;-142.75;100.00;77389.25;4937693;29;19921;-65
2023/02/23 13:15:17;;;;;;;;;;;;;;;-142.75;100.00;77377.44;4942464;29;19946;-66
2023/02/23 13:17:48;;;;;;;;;;;;;;;-142.75;100.00;77397.13;4936653;29;20443;-65
2023/02/23 13:20:20;;;;;;;;;;;;;;;-142.75;100.00;77397.13;4937431;29;19986;-65
2023/02/23 13:22:45;;;;;;;;;;;;;;;-142.75;100.00;77389.25;4938365;29;19937;-67
2023/02/23 13:25:33;;;;;;;;;;;;;;;-142.75;100.00;77381.38;4939441;29;19922;-66
2023/02/23 13:28:00;;;;;;;;;;;;;;;-142.75;100.00;77408.94;4939272;28;19915;-65
2023/02/23 13:30:27;;;;;;;;;;;;;;;-142.75;100.00;77405.00;4941650;29;19942;-65
2023/02/23 13:32:53;;;;;;;;;;;;;;;-142.75;100.00;77397.13;4942298;29;19914;-64
2023/02/23 13:35:20;;;;;;;;;;;;;;;-142.75;100.00;77389.25;4943747;28;20500;-65
2023/02/23 13:37:54;;;;;;;;;;;;;;;-142.75;100.00;77393.19;4942825;29;20480;-64
2023/02/23 13:40:19;;;;;;;;;;;;;;;-142.75;100.00;77393.19;4956183;28;20295;-64
2023/02/23 13:43:05;;;;;;;;;;;;;;;-142.75;100.00;77403.03;4954606;28;19914;-65